• Join FlightAware (Why Join?)
  • Login
  • US Flag 
07:27PM EDT


 

Airport Tracker/Info


-or-


 

Live Flight TrackerFlight Track Log ✈ N7702B ✈ 23-May-2012 ✈ KTLH - KMCO

Flight Track Log - Related Links

Times and Time Zones

All times are in EDT time to prevent confusion due to time zone crossing. See the N7702B flight status page for this flight to view local times or setup timezone preferences in your user account.

Time Position Orientation Groundspeed Altitude Reporting Facility
EDT Latitude Longitude Course Direction KTS MPH feet Rate Location/Type
01:49AM 30.1700 -83.9858 124° Southeast 149 171 5,500  Level Jacksonville Center
01:54AM 30.0442 -83.7708 129° Southeast 160 184 5,500  Level Jacksonville Center
01:55AM 30.0153 -83.7297 137° Southeast 160 184 5,500  Level Jacksonville Center
01:56AM 29.9842 -83.6958 118° Southeast 160 184 5,500  Level Jacksonville Center
01:57AM 29.9617 -83.6478 128° Southeast 160 184 5,500  Level Jacksonville Center
01:58AM 29.9325 -83.6044 121° Southeast 165 190 5,500  Level Jacksonville Center
01:59AM 29.9097 -83.5611 131° Southeast 165 190 5,500  Level Jacksonville Center
02:00AM 29.8786 -83.5203 135° Southeast 165 190 5,500  Level Jacksonville Center
02:01AM 29.8475 -83.4842 122° Southeast 165 190 5,500  Level Jacksonville Center
02:02AM 29.8228 -83.4383 121° Southeast 165 190 5,500  Level Jacksonville Center
02:03AM 29.8000 -83.3953 126° Southeast 160 184 5,500  Level Jacksonville Center
02:04AM 29.7731 -83.3519 129° Southeast 160 184 5,500  Level Jacksonville Center
02:05AM 29.7439 -83.3111 129° Southeast 160 184 5,500  Level Jacksonville Center
02:06AM 29.7147 -83.2703 130° Southeast 160 184 5,500  Level Jacksonville Center
02:07AM 29.6856 -83.2297 129° Southeast 160 184 5,500  Level Jacksonville Center
02:08AM 29.6567 -83.1889 128° Southeast 173 199 5,500  Level Jacksonville Center
02:09AM 29.6275 -83.1458 124° Southeast 166 191 5,500  Level Jacksonville Center
02:10AM 29.6025 -83.1028 130° Southeast 166 191 5,500  Level Jacksonville Center
02:11AM 29.5817 -83.0742 130° Southeast 165 190 5,500 -60 Level Jacksonville Center
02:12AM 29.5503 -83.0311 124° Southeast 164 189 5,400  Descending Jacksonville Center
02:13AM 29.5253 -82.9881 121° Southeast 162 186 5,500  Climbing Jacksonville Center
02:14AM 29.5025 -82.9450 122° Southeast 161 185 5,500  Level Jacksonville Center
02:15AM 29.4794 -82.9022 125° Southeast 161 185 5,500  Level Jacksonville Center
02:16AM 29.4522 -82.8569 125° Southeast 161 185 5,500  Level Jacksonville Center
02:17AM 29.4272 -82.8164 127° Southeast 159 183 5,500  Level Jacksonville Center
02:18AM 29.4022 -82.7781 122° Southeast 156 180 5,500  Level Jacksonville Center
02:19AM 29.3792 -82.7353 128° Southeast 155 178 5,500  Level Jacksonville Center
02:20AM 29.3519 -82.6947 131° Southeast 154 177 5,500  Level Jacksonville Center
02:21AM 29.3228 -82.6567 129° Southeast 154 177 5,500  Level Jacksonville Center
02:22AM 29.2956 -82.6186 130° Southeast 154 177 5,500  Level Jacksonville Center
02:23AM 29.2661 -82.5783 133° Southeast 154 177 5,500  Level Jacksonville Center
02:24AM 29.2369 -82.5428 133° Southeast 157 181 5,500  Level Jacksonville Center
02:25AM 29.2075 -82.5072 130° Southeast 157 181 5,500  Level Jacksonville Center
02:26AM 29.1781 -82.4669 122° Southeast 158 182 5,500  Level Jacksonville Center
02:27AM 29.1550 -82.4242 127° Southeast 157 181 5,500  Level Jacksonville Center
02:28AM 29.1297 -82.3861 128° Southeast 157 181 5,500  Level Jacksonville Center
02:29AM 29.1006 -82.3436 126° Southeast 158 182 5,500  Level Jacksonville Center
02:30AM 29.0753 -82.3033 120° Southeast 157 181 5,500  Level Jacksonville Center
02:31AM 29.0542 -82.2608 127° Southeast 159 183 5,500  Level Jacksonville Center
02:32AM 29.0289 -82.2228 126° Southeast 156 180 5,500  Level Jacksonville Center
02:33AM 29.0036 -82.1828 126° Southeast 154 177 5,500  Level Jacksonville Center
02:34AM 28.9761 -82.1403 124° Southeast 157 181 5,500  Level Jacksonville Center
02:36AM 28.9333 -82.0667 139° Southeast 155 178 5,500  Level Orlando TRACON
02:37AM 28.9000 -82.0333 120° Southeast 155 178 5,500  Level Orlando TRACON
02:38AM 28.8833 -82.0000 127° Southeast 158 182 5,500  Level Orlando TRACON
02:39AM 28.8500 -81.9500 120° Southeast 159 183 5,500  Level Orlando TRACON
02:40AM 28.8333 -81.9167 139° Southeast 158 182 5,500 -180 Level Orlando TRACON
02:41AM 28.8000 -81.8833 111° Southeast 160 184 5,200 -360 Descending Orlando TRACON
02:42AM 28.7833 -81.8333 139° Southeast 165 190 4,900 -360 Descending Orlando TRACON
02:43AM 28.7500 -81.8000 127° Southeast 164 189 4,600 -360 Descending Orlando TRACON
02:44AM 28.7167 -81.7500 120° Southeast 170 196 4,200 -420 Descending Orlando TRACON
02:45AM 28.7000 -81.7167 127° Southeast 173 199 3,800 -360 Descending Orlando TRACON
02:46AM 28.6667 -81.6667 139° Southeast 173 199 3,500 -120 Descending Orlando TRACON
02:47AM 28.6333 -81.6333 111° Southeast 165 190 3,600  Climbing Orlando TRACON
02:48AM 28.6167 -81.5833 139° Southeast 161 185 3,500 -60 Descending Orlando TRACON
02:49AM 28.5833 -81.5500 127° Southeast 162 186 3,500 -60 Level Orlando TRACON
02:50AM 28.5500 -81.5000 111° Southeast 160 184 3,400 -300 Descending Orlando TRACON
02:51AM 28.5333 -81.4500 111° Southeast 170 196 3,000 -480 Descending Orlando TRACON
02:52AM 28.5167 -81.4000 90° East 179 206 2,400 -480 Descending Orlando TRACON
02:53AM 28.5167 -81.3500 90° East 147 169 2,100 -300 Descending Orlando TRACON
02:54AM 28.5167 -81.3167 156° South 125 144 1,900 -480 Descending Orlando TRACON
02:55AM 28.4833 -81.3000 180° South 107 123 1,200 -660 Descending Orlando TRACON
02:56AM 28.4667 -81.3000 180° South 87 100 600 -180 Descending Orlando TRACON
02:59AM 28.4167 -81.3000 360° North 79 91 600  Level Orlando TRACON
03:04AM 28.4167 -81.3000 139° Southeast 83 96 600 60 Level Orlando TRACON
03:05AM 28.4000 -81.2833 360° North 90 104 1,000 240 Climbing Orlando TRACON
03:06AM 28.4333 -81.2833 360° North 108 124 1,000 -240 Level Orlando TRACON
03:07AM 28.4500 -81.2833 204° Southwest 101 116 600 -120 Descending Orlando TRACON
03:09AM 28.4167 -81.3000 41° Northeast 75 86 600 60 Level Orlando TRACON
03:11AM 28.4333 -81.2833 360° North 109 125 900  Climbing Orlando TRACON
03:12AM 28.4667 -81.2833 221° Southwest 101 116 600 -300 Descending Orlando TRACON
03:13AM 28.4500 -81.3000 180° South 83 96 300  Descending Orlando TRACON
03:14AM 28.4167 -81.3000 41° Northeast 91 105 600 180 Climbing Orlando TRACON
03:16AM 28.4333 -81.2833 360° North 106 122 1,000  Climbing Orlando TRACON
03:17AM 28.4667 -81.2833 196° South 101 116 600 -120 Descending Orlando TRACON
03:19AM 28.4167 -81.3000 41° Northeast 96 110 600 60 Level Orlando TRACON
03:20AM 28.4333 -81.2833 360° North 105 121 1,000  Climbing Orlando TRACON
03:21AM 28.4500 -81.2833 270° West 107 123 700 -300 Descending Orlando TRACON
03:22AM 28.4500 -81.3000 180° South 84 97 400  Descending Orlando TRACON
03:24AM 28.4167 -81.3000 41° Northeast 87 100 700 180 Climbing Orlando TRACON
03:25AM 28.4333 -81.2833 360° North 104 120 1,000  Climbing Orlando TRACON
03:26AM 28.4667 -81.2833 192° South 109 125 700 -180 Descending Orlando TRACON
03:29AM 28.4000 -81.3000 41° Northeast 98 113 500 60 Descending Orlando TRACON
03:30AM 28.4167 -81.2833 221° Southwest 140 161 1,000 60 Climbing Orlando TRACON
03:34AM 28.4000 -81.3000 41° Northeast 94 108 800  Descending Orlando TRACON
03:35AM 28.4167 -81.2833 360° North 105 121 1,200 60 Climbing Orlando TRACON
03:36AM 28.4500 -81.2833 319° Northwest 108 124 1,000 -360 Descending Orlando TRACON
03:37AM 28.4667 -81.3000 180° South 90 104 500 -180 Descending Orlando TRACON
03:39AM 28.4167 -81.3000 90° East 85 98 600 180 Climbing Orlando TRACON
03:40AM 28.4167 -81.2833 360° North 106 122 1,100 180 Climbing Orlando TRACON
03:41AM 28.4500 -81.2833 319° Northwest 104 120 1,100 -300 Level Orlando TRACON
03:42AM 28.4667 -81.3000 180° South 89 102 600 -120 Descending Orlando TRACON
03:45AM 28.4000 -81.3000 196° South 112 129 700  Climbing Orlando TRACON
03:49AM 28.2313 -81.3567 196° South  Level Estimated